Steuben, Maine
Current Conditions -  °F | °C
As of 9:35 AM on Tuesday 27 Jan 2015 (Local Time) from KBHB Reporting Station
Overcast Overcast  
Wind Chill: -10°   Ceiling: 500
Heat Index: 12°   Visibility: 0mi
Dew Point: 12°   Wind: 33mph
Humidity: 100%   Direction: 10°N
Pressure: 29.63"   Gusts: 47mph
Location:  44.51°N, 67.97°W
Report Text: KBHB 271435Z 01029G41KT M1/4SM OVC005 M11/M11 A2963 RMK AO1
Loading
Personal Weather Stations






























Interactive Weather Map New forecast layout! Learn more

10-Day Weather Forecast

Advertisements
Track Severe Weather on mobile